createdAt,value
2023-03-16T00:01:51.488Z,3.48
2023-03-16T00:04:18.080Z,3.50
2023-03-16T00:06:45.054Z,3.47
2023-03-16T00:09:11.626Z,3.50
2023-03-16T00:11:38.451Z,3.57
2023-03-16T00:14:05.216Z,3.58
2023-03-16T00:16:34.614Z,3.60
2023-03-16T00:19:03.145Z,3.60
2023-03-16T00:21:29.771Z,3.62
2023-03-16T00:23:59.456Z,3.63
2023-03-16T00:26:26.231Z,3.63
2023-03-16T00:28:52.918Z,3.60
2023-03-16T00:31:20.372Z,3.58
2023-03-16T00:33:46.891Z,3.63
2023-03-16T00:36:13.478Z,3.62
2023-03-16T00:38:41.774Z,3.62
2023-03-16T00:41:08.662Z,3.66
2023-03-16T00:43:37.189Z,3.66
2023-03-16T00:46:03.822Z,3.70
2023-03-16T00:48:33.745Z,3.73
2023-03-16T00:51:02.585Z,3.65
2023-03-16T00:53:31.870Z,3.72
2023-03-16T00:55:58.358Z,3.68
2023-03-16T00:58:25.289Z,3.71
2023-03-16T01:00:54.536Z,3.73
2023-03-16T01:03:21.213Z,3.79
2023-03-16T01:05:48.089Z,3.77
2023-03-16T01:08:15.130Z,3.74
2023-03-16T01:10:41.709Z,3.68
2023-03-16T01:13:08.312Z,3.75
2023-03-16T01:15:37.760Z,3.75
2023-03-16T01:18:06.688Z,3.70
2023-03-16T01:20:33.302Z,3.67
2023-03-16T01:23:05.796Z,3.69
2023-03-16T01:25:32.449Z,3.71
2023-03-16T01:27:59.101Z,3.70
2023-03-16T01:30:26.061Z,3.69
2023-03-16T01:32:52.748Z,3.71
2023-03-16T01:35:19.328Z,3.75
2023-03-16T01:37:45.980Z,3.61
2023-03-16T01:40:12.941Z,3.64
2023-03-16T01:42:46.376Z,3.70
2023-03-16T01:45:50.528Z,3.71
2023-03-16T01:48:17.124Z,3.75
2023-03-16T01:50:45.850Z,3.74
2023-03-16T01:53:12.509Z,3.78
2023-03-16T01:55:40.329Z,3.71
2023-03-16T01:58:09.642Z,3.68
2023-03-16T02:00:36.337Z,3.75
2023-03-16T02:03:14.807Z,3.69
2023-03-16T02:05:59.353Z,3.65
2023-03-16T02:08:27.452Z,3.66
2023-03-16T02:10:56.565Z,3.65
2023-03-16T02:13:27.624Z,3.69
2023-03-16T02:15:54.221Z,3.66
2023-03-16T02:18:21.879Z,3.67
2023-03-16T02:21:30.572Z,3.55
2023-03-16T02:23:57.539Z,3.58
2023-03-16T02:26:36.078Z,3.54
2023-03-16T02:29:20.855Z,3.56
2023-03-16T02:31:48.258Z,3.58
2023-03-16T02:34:17.697Z,3.55
2023-03-16T02:36:46.628Z,3.56
2023-03-16T02:39:13.362Z,3.59
2023-03-16T02:41:40.846Z,3.62
2023-03-16T02:44:19.750Z,3.60
2023-03-16T02:46:48.662Z,3.55
2023-03-16T02:49:38.615Z,3.55
2023-03-16T02:52:06.515Z,3.60
2023-03-16T02:54:33.314Z,3.57
2023-03-16T02:57:00.004Z,3.56
2023-03-16T02:59:26.686Z,3.56
2023-03-16T03:01:58.801Z,3.57
2023-03-16T03:04:25.361Z,3.58
2023-03-16T03:06:52.238Z,3.57
2023-03-16T03:09:19.548Z,3.49
2023-03-16T03:11:47.556Z,3.56
2023-03-16T03:14:14.244Z,3.49
2023-03-16T03:16:40.837Z,3.53
2023-03-16T03:19:10.110Z,3.47
2023-03-16T03:21:36.617Z,3.48
2023-03-16T03:24:03.260Z,3.50
2023-03-16T03:26:29.776Z,3.49
2023-03-16T03:28:56.483Z,3.41
2023-03-16T03:31:23.218Z,3.41
2023-03-16T03:33:49.911Z,3.45
2023-03-16T03:36:19.576Z,3.45
2023-03-16T03:38:46.424Z,3.46
2023-03-16T03:41:13.226Z,3.46
2023-03-16T03:43:39.786Z,3.43
2023-03-16T03:46:06.574Z,3.42
2023-03-16T03:48:33.793Z,3.43
2023-03-16T03:51:00.611Z,3.37
2023-03-16T03:53:27.421Z,3.35
2023-03-16T03:55:54.193Z,3.35
2023-03-16T03:58:23.586Z,3.28
2023-03-16T04:00:50.132Z,3.33
2023-03-16T04:03:18.085Z,3.32
2023-03-16T04:05:44.826Z,3.34
2023-03-16T04:08:11.692Z,3.32
2023-03-16T04:10:38.445Z,3.28
2023-03-16T04:13:05.811Z,3.28
2023-03-16T04:15:35.408Z,3.31
2023-03-16T04:18:02.323Z,3.32
2023-03-16T04:20:31.898Z,3.28
2023-03-16T04:23:00.804Z,3.34
2023-03-16T04:25:27.760Z,3.25
2023-03-16T04:27:54.889Z,3.28
2023-03-16T04:30:22.346Z,3.27
2023-03-16T04:32:49.275Z,3.25
2023-03-16T04:35:17.266Z,3.31
2023-03-16T04:37:44.402Z,3.25
2023-03-16T04:40:14.375Z,3.28
2023-03-16T04:42:41.207Z,3.29
2023-03-16T04:45:11.156Z,3.32
2023-03-16T04:47:38.511Z,3.30
2023-03-16T04:50:05.860Z,3.27
2023-03-16T04:52:35.448Z,3.32
2023-03-16T04:55:02.087Z,3.30
2023-03-16T04:57:30.187Z,3.25
2023-03-16T04:59:56.766Z,3.26
2023-03-16T05:02:26.878Z,3.29
2023-03-16T05:04:53.491Z,3.29
2023-03-16T05:07:20.199Z,3.32
2023-03-16T05:09:46.841Z,3.28
2023-03-16T05:12:13.429Z,3.30
2023-03-16T05:14:42.077Z,3.37
2023-03-16T05:17:08.772Z,3.34
2023-03-16T05:19:35.513Z,3.39
2023-03-16T05:22:02.137Z,3.43
2023-03-16T05:24:28.856Z,3.43
2023-03-16T05:26:55.585Z,3.49
2023-03-16T05:29:22.236Z,3.53
2023-03-16T05:31:49.124Z,3.55
2023-03-16T05:34:15.836Z,3.51
2023-03-16T05:36:42.651Z,3.65
2023-03-16T05:39:09.270Z,3.66
2023-03-16T05:41:36.018Z,3.69
2023-03-16T05:44:03.132Z,3.72
2023-03-16T05:46:29.927Z,3.73
2023-03-16T05:48:56.528Z,3.73
2023-03-16T05:51:23.324Z,3.74
2023-03-16T05:53:52.195Z,3.72
2023-03-16T05:56:18.695Z,3.62
2023-03-16T05:58:48.180Z,3.66
2023-03-16T06:01:14.750Z,3.70
2023-03-16T06:03:41.341Z,3.71
2023-03-16T06:06:08.007Z,3.71
2023-03-16T06:08:34.523Z,3.65
2023-03-16T06:11:01.073Z,3.65
2023-03-16T06:13:27.640Z,3.69
2023-03-16T06:15:56.013Z,3.73
2023-03-16T06:18:25.588Z,3.79
2023-03-16T06:20:52.140Z,3.81
2023-03-16T06:23:21.673Z,3.84
2023-03-16T06:25:51.755Z,3.87
2023-03-16T06:28:18.229Z,3.94
2023-03-16T06:30:48.098Z,4.00
2023-03-16T06:33:37.157Z,4.02
2023-03-16T06:36:03.983Z,3.97
2023-03-16T06:38:36.936Z,4.04
2023-03-16T06:41:24.113Z,4.17
2023-03-16T06:44:03.429Z,4.27
2023-03-16T06:49:43.449Z,5.05
2023-03-16T06:52:35.516Z,5.60
2023-03-16T06:55:11.424Z,6.37
2023-03-16T06:57:42.604Z,7.26
2023-03-16T07:00:12.527Z,8.09
2023-03-16T07:02:39.240Z,8.69
2023-03-16T07:05:07.041Z,8.68
2023-03-16T07:10:18.129Z,8.36
2023-03-16T07:12:54.133Z,8.23
2023-03-16T07:15:31.406Z,8.59
2023-03-16T07:20:41.598Z,8.08
2023-03-16T07:23:13.254Z,8.16
2023-03-16T07:25:40.053Z,7.94
2023-03-16T07:31:13.575Z,7.97
2023-03-16T07:33:43.287Z,7.99
2023-03-16T07:36:10.145Z,8.07
2023-03-16T07:38:36.838Z,8.16
2023-03-16T07:41:03.799Z,7.59
2023-03-16T07:43:53.112Z,7.52
2023-03-16T07:46:18.783Z,7.43
2023-03-16T07:48:48.466Z,7.54
2023-03-16T07:51:15.320Z,7.79
2023-03-16T07:53:42.122Z,8.40
2023-03-16T07:56:08.964Z,8.64
2023-03-16T07:58:38.294Z,9.14
2023-03-16T08:01:05.141Z,9.64
2023-03-16T08:03:43.327Z,9.59
2023-03-16T08:06:15.785Z,9.51
2023-03-16T08:08:44.794Z,9.39
2023-03-16T08:11:14.288Z,8.89
2023-03-16T08:13:54.549Z,8.80
2023-03-16T08:16:30.573Z,8.42
2023-03-16T08:18:58.355Z,8.04
2023-03-16T08:21:24.952Z,7.86
2023-03-16T08:24:04.352Z,8.01
2023-03-16T08:26:31.655Z,8.21
2023-03-16T08:29:00.990Z,7.84
2023-03-16T08:31:27.623Z,8.01
2023-03-16T08:33:54.286Z,8.26
2023-03-16T08:39:42.350Z,8.83
2023-03-16T08:42:12.777Z,9.60
2023-03-16T08:44:46.196Z,10.21
2023-03-16T08:47:12.825Z,10.21
2023-03-16T08:49:39.780Z,9.48
2023-03-16T08:52:07.560Z,9.37
2023-03-16T08:54:34.723Z,9.43
2023-03-16T08:57:14.127Z,9.53
2023-03-16T08:59:48.534Z,9.85
2023-03-16T09:02:25.210Z,10.30
2023-03-16T09:04:52.065Z,11.04
2023-03-16T09:07:19.235Z,12.30
2023-03-16T09:09:47.269Z,12.07
2023-03-16T09:12:16.496Z,11.82
2023-03-16T09:14:43.130Z,11.84
2023-03-16T09:17:09.779Z,11.22
2023-03-16T09:19:53.818Z,11.00
2023-03-16T09:22:22.112Z,10.96
2023-03-16T09:24:49.196Z,9.96
2023-03-16T09:27:21.638Z,9.06
2023-03-16T09:29:48.932Z,9.07
2023-03-16T09:32:15.496Z,9.20
2023-03-16T09:37:23.182Z,9.20
2023-03-16T09:39:50.229Z,10.18
2023-03-16T09:42:29.196Z,12.33
2023-03-16T09:45:15.127Z,14.07
2023-03-16T09:47:43.257Z,13.92
2023-03-16T09:50:23.586Z,14.58
2023-03-16T09:53:09.192Z,14.81
2023-03-16T09:55:41.059Z,15.13
2023-03-16T09:58:18.172Z,14.33
2023-03-16T10:01:23.608Z,13.59
2023-03-16T10:06:58.489Z,14.75
2023-03-16T10:09:28.339Z,14.12
2023-03-16T10:12:02.919Z,13.14
2023-03-16T10:15:13.956Z,14.11
2023-03-16T10:17:56.252Z,14.61
2023-03-16T10:20:35.159Z,13.54
2023-03-16T10:23:20.392Z,13.28
2023-03-16T10:26:07.189Z,14.12
2023-03-16T10:28:36.051Z,17.24
2023-03-16T10:31:18.969Z,18.10
2023-03-16T10:33:48.322Z,20.82
2023-03-16T10:36:44.328Z,20.63
2023-03-16T10:39:16.021Z,20.26
2023-03-16T10:42:04.535Z,20.14
2023-03-16T10:44:33.443Z,17.23
2023-03-16T10:47:03.864Z,16.83
2023-03-16T10:49:48.873Z,18.00
2023-03-16T10:52:51.403Z,17.73
2023-03-16T10:55:41.712Z,17.29
2023-03-16T10:58:34.150Z,18.44
2023-03-16T11:01:01.417Z,17.04
2023-03-16T11:03:30.582Z,16.54
2023-03-16T11:06:03.026Z,16.36
2023-03-16T11:08:39.594Z,16.39
2023-03-16T11:11:18.424Z,16.60
2023-03-16T11:13:47.582Z,17.07
2023-03-16T11:16:36.234Z,17.35
2023-03-16T11:19:28.300Z,16.08
2023-03-16T11:22:16.399Z,16.72
2023-03-16T11:24:50.202Z,18.05
2023-03-16T11:27:26.594Z,16.91
2023-03-16T11:30:03.574Z,16.57
2023-03-16T11:32:40.263Z,14.70
2023-03-16T11:35:16.982Z,18.11
2023-03-16T11:37:54.558Z,16.67
2023-03-16T11:40:50.607Z,14.28
2023-03-16T11:43:38.691Z,13.23
2023-03-16T11:46:24.678Z,11.86
2023-03-16T11:49:16.148Z,11.78
2023-03-16T11:52:21.342Z,11.39
2023-03-16T11:55:04.304Z,11.28
2023-03-16T11:57:53.429Z,11.13
2023-03-16T12:01:20.224Z,10.76
2023-03-16T12:03:54.728Z,10.61
2023-03-16T12:06:36.723Z,9.83
2023-03-16T12:09:12.079Z,9.59
2023-03-16T12:12:23.511Z,9.80
2023-03-16T12:15:19.546Z,10.06
2023-03-16T12:17:47.977Z,9.83
2023-03-16T12:20:24.320Z,10.28
2023-03-16T12:23:02.546Z,10.26
2023-03-16T12:25:36.553Z,9.96
2023-03-16T12:28:11.378Z,9.78
2023-03-16T12:30:48.741Z,9.59
2023-03-16T12:33:38.259Z,9.77
2023-03-16T12:36:29.159Z,9.94
2023-03-16T12:39:19.085Z,9.88
2023-03-16T12:42:11.023Z,9.41
2023-03-16T12:44:43.593Z,9.42
2023-03-16T12:47:33.348Z,9.67
2023-03-16T12:50:26.541Z,9.73
2023-03-16T12:52:55.939Z,9.80
2023-03-16T12:55:35.700Z,9.84
2023-03-16T12:58:07.190Z,9.83
2023-03-16T13:00:39.706Z,9.67
2023-03-16T13:03:14.284Z,9.24
2023-03-16T13:05:49.809Z,9.07
2023-03-16T13:08:19.710Z,9.14
2023-03-16T13:11:12.252Z,9.34
2023-03-16T13:14:00.691Z,9.10
2023-03-16T13:16:32.592Z,8.85
2023-03-16T13:18:59.615Z,8.68
2023-03-16T13:21:36.844Z,8.76
2023-03-16T13:24:18.763Z,8.90
2023-03-16T13:27:04.995Z,8.97
2023-03-16T13:29:35.735Z,9.20
2023-03-16T13:32:08.840Z,9.16
2023-03-16T13:35:00.139Z,9.01
2023-03-16T13:37:35.113Z,8.67
2023-03-16T13:40:05.219Z,8.62
2023-03-16T13:42:35.901Z,8.63
2023-03-16T13:45:14.303Z,8.72
2023-03-16T13:47:44.979Z,8.86
2023-03-16T13:50:16.241Z,8.86
2023-03-16T13:52:43.997Z,8.65
2023-03-16T13:55:17.074Z,8.58
2023-03-16T13:57:56.071Z,8.54
2023-03-16T14:00:26.174Z,8.53
2023-03-16T14:03:01.331Z,8.85
2023-03-16T14:05:31.336Z,9.06
2023-03-16T14:07:59.264Z,9.17
2023-03-16T14:10:37.202Z,8.79
2023-03-16T14:13:23.584Z,8.74
2023-03-16T14:15:50.938Z,8.76
2023-03-16T14:18:23.190Z,8.80
2023-03-16T14:20:59.669Z,8.60
2023-03-16T14:23:40.844Z,8.53
2023-03-16T14:26:16.728Z,8.63
2023-03-16T14:28:56.033Z,8.69
2023-03-16T14:31:31.004Z,8.60
2023-03-16T14:34:03.327Z,8.55
2023-03-16T14:36:36.149Z,8.64
2023-03-16T14:39:19.374Z,8.70
2023-03-16T14:41:51.517Z,8.44
2023-03-16T14:44:24.352Z,8.55
2023-03-16T14:46:54.307Z,8.43
2023-03-16T14:49:31.330Z,8.36
2023-03-16T14:52:12.459Z,8.37
2023-03-16T14:54:39.219Z,8.17
2023-03-16T14:57:06.182Z,8.18
2023-03-16T14:59:33.882Z,8.19
2023-03-16T15:02:24.137Z,8.25
2023-03-16T15:05:09.285Z,8.07
2023-03-16T15:07:39.498Z,8.01
2023-03-16T15:10:15.616Z,8.18
2023-03-16T15:12:43.016Z,8.13
2023-03-16T15:18:07.332Z,8.03
2023-03-16T15:20:40.138Z,8.03
2023-03-16T15:23:10.470Z,8.04
2023-03-16T15:25:38.007Z,7.89
2023-03-16T15:28:13.846Z,7.88
2023-03-16T15:30:40.566Z,7.75
2023-03-16T15:33:09.609Z,7.78
2023-03-16T15:35:44.989Z,7.69
2023-03-16T15:38:18.060Z,7.76
2023-03-16T15:40:45.341Z,7.69
2023-03-16T15:43:13.781Z,7.74
2023-03-16T15:45:40.431Z,7.58
2023-03-16T15:48:09.097Z,7.57
2023-03-16T15:50:39.164Z,7.51
2023-03-16T15:53:13.247Z,7.50
2023-03-16T15:55:47.362Z,7.52
2023-03-16T15:58:20.296Z,7.47
2023-03-16T16:00:47.767Z,7.48
2023-03-16T16:03:14.689Z,7.43
2023-03-16T16:05:41.580Z,7.38
2023-03-16T16:08:08.328Z,7.28
2023-03-16T16:10:34.890Z,7.21
2023-03-16T16:13:02.185Z,7.24
2023-03-16T16:15:35.788Z,7.17
2023-03-16T16:18:20.535Z,7.15
2023-03-16T16:20:48.245Z,6.97
2023-03-16T16:23:14.991Z,6.96
2023-03-16T16:25:42.179Z,6.92
2023-03-16T16:28:22.007Z,6.86
2023-03-16T16:30:51.452Z,6.77
2023-03-16T16:33:24.762Z,6.67
2023-03-16T16:35:52.893Z,6.56
2023-03-16T16:38:22.706Z,6.52
2023-03-16T16:40:49.920Z,6.45
2023-03-16T16:43:37.362Z,6.30
2023-03-16T16:46:07.023Z,6.22
2023-03-16T16:48:39.462Z,6.25
2023-03-16T16:51:06.943Z,6.19
2023-03-16T16:53:33.582Z,6.02
2023-03-16T16:56:00.450Z,6.00
2023-03-16T16:58:27.364Z,5.99
2023-03-16T17:00:56.426Z,5.94
2023-03-16T17:03:27.230Z,5.85
2023-03-16T17:05:56.489Z,5.81
2023-03-16T17:08:23.290Z,5.82
2023-03-16T17:10:50.665Z,5.77
2023-03-16T17:13:36.979Z,5.70
2023-03-16T17:16:03.733Z,5.69
2023-03-16T17:18:30.305Z,5.58
2023-03-16T17:20:56.949Z,5.62
2023-03-16T17:23:33.417Z,5.53
2023-03-16T17:26:04.644Z,5.44
2023-03-16T17:28:35.793Z,5.43
2023-03-16T17:31:02.611Z,5.47
2023-03-16T17:33:31.935Z,5.39
2023-03-16T17:35:58.481Z,5.34
2023-03-16T17:38:25.419Z,5.31
2023-03-16T17:40:53.503Z,5.24
2023-03-16T17:43:23.084Z,5.21
2023-03-16T17:45:51.957Z,5.17
2023-03-16T17:48:21.440Z,5.11
2023-03-16T17:50:49.000Z,5.12
2023-03-16T17:53:18.535Z,5.03
2023-03-16T17:55:46.175Z,5.04
2023-03-16T17:58:27.977Z,4.97
2023-03-16T18:00:55.141Z,4.94
2023-03-16T18:03:24.790Z,4.93
2023-03-16T18:05:52.178Z,4.89
2023-03-16T18:08:27.843Z,4.91
2023-03-16T18:11:10.199Z,4.92
2023-03-16T18:13:39.434Z,4.85
2023-03-16T18:16:07.596Z,4.82
2023-03-16T18:18:38.311Z,4.76
2023-03-16T18:21:05.696Z,4.76
2023-03-16T18:23:34.605Z,4.75
2023-03-16T18:26:01.905Z,4.73
2023-03-16T18:28:29.023Z,4.74
2023-03-16T18:30:57.044Z,4.66
2023-03-16T18:33:30.468Z,4.63
2023-03-16T18:36:06.317Z,4.67
2023-03-16T18:38:39.048Z,4.58
2023-03-16T18:41:25.015Z,4.54
2023-03-16T18:43:56.391Z,4.48
2023-03-16T18:46:31.741Z,4.50
2023-03-16T18:49:28.429Z,4.51
2023-03-16T18:51:55.217Z,4.44
2023-03-16T18:54:30.418Z,4.41
2023-03-16T18:56:58.171Z,4.39
2023-03-16T18:59:25.426Z,4.30
2023-03-16T19:01:53.399Z,4.33
2023-03-16T19:04:26.065Z,4.25
2023-03-16T19:06:54.491Z,4.23
2023-03-16T19:09:27.899Z,4.08
2023-03-16T19:11:54.540Z,4.15
2023-03-16T19:14:39.448Z,4.13
2023-03-16T19:17:06.138Z,4.09
2023-03-16T19:19:32.762Z,4.11
2023-03-16T19:22:07.181Z,4.11
2023-03-16T19:24:55.259Z,4.08
2023-03-16T19:27:29.845Z,4.01
2023-03-16T19:29:56.478Z,3.96
2023-03-16T19:32:23.186Z,3.93
2023-03-16T19:34:50.139Z,3.93
2023-03-16T19:37:17.308Z,3.95
2023-03-16T19:39:43.934Z,3.80
2023-03-16T19:42:33.926Z,3.88
2023-03-16T19:45:00.994Z,3.84
2023-03-16T19:47:33.461Z,3.83
2023-03-16T19:50:00.426Z,3.83
2023-03-16T19:52:28.367Z,3.84
2023-03-16T19:54:56.039Z,3.79
2023-03-16T19:57:23.263Z,3.82
2023-03-16T19:59:55.084Z,3.82
2023-03-16T20:02:31.606Z,3.79
2023-03-16T20:04:58.282Z,3.76
2023-03-16T20:07:24.866Z,3.71
2023-03-16T20:09:51.494Z,3.74
2023-03-16T20:12:24.074Z,3.70
2023-03-16T20:14:51.146Z,3.66
2023-03-16T20:17:23.494Z,3.63
2023-03-16T20:19:51.229Z,3.64
2023-03-16T20:22:20.777Z,3.68
2023-03-16T20:24:48.141Z,3.65
2023-03-16T20:27:16.623Z,3.60
2023-03-16T20:29:43.373Z,3.55
2023-03-16T20:32:28.250Z,3.55
2023-03-16T20:34:54.887Z,3.52
2023-03-16T20:37:23.105Z,3.54
2023-03-16T20:39:51.219Z,3.49
2023-03-16T20:42:19.725Z,3.45
2023-03-16T20:44:46.282Z,3.43
2023-03-16T20:47:18.239Z,3.42
2023-03-16T20:49:47.308Z,3.43
2023-03-16T20:52:25.085Z,3.38
2023-03-16T20:54:52.258Z,3.35
2023-03-16T20:57:27.221Z,3.32
2023-03-16T20:59:54.207Z,3.25
2023-03-16T21:02:34.554Z,3.25
2023-03-16T21:05:03.721Z,3.24
2023-03-16T21:07:31.448Z,3.29
2023-03-16T21:09:58.072Z,3.24
2023-03-16T21:12:30.125Z,3.20
2023-03-16T21:14:57.335Z,3.20
2023-03-16T21:17:26.915Z,3.19
2023-03-16T21:19:53.650Z,3.17
2023-03-16T21:22:26.852Z,3.04
2023-03-16T21:24:54.569Z,2.97
2023-03-16T21:27:30.577Z,2.99
2023-03-16T21:30:00.576Z,2.89
2023-03-16T21:32:27.989Z,2.85
2023-03-16T21:34:56.817Z,2.79
2023-03-16T21:37:23.474Z,2.82
2023-03-16T21:39:51.292Z,2.77
2023-03-16T21:42:18.741Z,2.73
2023-03-16T21:44:45.368Z,2.65
2023-03-16T21:47:25.131Z,2.61
2023-03-16T21:49:52.438Z,2.59
2023-03-16T21:52:29.197Z,2.52
2023-03-16T21:54:57.269Z,2.54
2023-03-16T21:57:24.283Z,2.46
2023-03-16T21:59:50.828Z,2.48
2023-03-16T22:02:20.666Z,2.48
2023-03-16T22:04:47.686Z,2.44
2023-03-16T22:07:15.107Z,2.46
2023-03-16T22:09:41.742Z,2.43
2023-03-16T22:12:13.179Z,2.45
2023-03-16T22:14:40.547Z,2.39
2023-03-16T22:17:12.029Z,2.39
2023-03-16T22:19:38.758Z,2.42
2023-03-16T22:22:06.367Z,2.42
2023-03-16T22:24:34.951Z,2.43
2023-03-16T22:27:01.636Z,2.47
2023-03-16T22:29:32.739Z,2.48
2023-03-16T22:32:02.931Z,2.46
2023-03-16T22:34:46.558Z,2.43
2023-03-16T22:37:18.478Z,2.40
2023-03-16T22:39:45.134Z,2.37
2023-03-16T22:42:26.588Z,2.33
2023-03-16T22:44:54.607Z,2.33
2023-03-16T22:47:22.885Z,2.29
2023-03-16T22:49:49.503Z,2.30
2023-03-16T22:52:16.200Z,2.21
2023-03-16T22:54:43.326Z,2.27
2023-03-16T22:57:15.243Z,2.23
2023-03-16T22:59:43.195Z,2.21
2023-03-16T23:02:18.126Z,2.16
2023-03-16T23:04:44.864Z,2.17
2023-03-16T23:07:13.599Z,2.19
2023-03-16T23:09:40.729Z,2.12
2023-03-16T23:12:20.893Z,2.16
2023-03-16T23:14:47.593Z,2.13
2023-03-16T23:17:19.929Z,2.08
2023-03-16T23:19:46.936Z,2.12
2023-03-16T23:22:13.531Z,2.07
2023-03-16T23:24:40.606Z,2.03
2023-03-16T23:27:16.689Z,2.08
2023-03-16T23:29:43.478Z,2.12
2023-03-16T23:32:11.147Z,2.14
2023-03-16T23:34:37.674Z,2.14
2023-03-16T23:37:04.321Z,2.11
2023-03-16T23:39:30.907Z,2.16
2023-03-16T23:41:57.733Z,2.17
2023-03-16T23:44:27.645Z,2.18
2023-03-16T23:46:54.406Z,2.17
2023-03-16T23:49:24.499Z,2.21
2023-03-16T23:51:52.620Z,2.20
2023-03-16T23:54:25.513Z,2.22
2023-03-16T23:56:52.148Z,2.22
2023-03-16T23:59:19.179Z,2.21
